Pagrindinis puslapis
METAR-TAF:

METAR-TAF

Oro uostai :

Džajapura, Indonezija

platuma: 02-34-37S, ilguma: 140-30-58E, Aukštis: 88 m

Dabartinis oras

Ataskaita buvo paskelbta 33 minutes, ne 09:30 UTC
Vėjas 10 kt iš Rytų
Temperatūra 29°C
Drėgmė 74%
Slėgis 1008 hPa
Matomumas 10 km arba daugiau
Mažai debesys ne aukštis 1400 ft

METAR: WAJJ 220930Z 10010KT 9999 FEW014 29/24 Q1008 NOSIG

Laikas: 17:03 (10:03 UTC)


TAF: trūkstamas

Orai ataskaitas ir orų prognozės (METAR, TAF).

turimą stotys yra geltonos ir raudonos taškus žemėlapyje.

Perkelti pele per norėdami pamatyti stoties vardą.

Tada spustelėkite, norėdami matyti oro stebėjimo ir prognozės.

Norėdami pakeisti žemėlapį: spustelėkite ant žalios mygtukų su juodo kryžiaus žemyn,; žalią mygtuką su brūkšneliu, jei norite nutolinti; arba žalių rodyklių gretimoms žemėlapius.


METAR-TAF: